createdAt,value
2024-03-08T05:36:30.546Z,15.23
2024-03-08T05:38:57.169Z,17.07
2024-03-08T05:41:23.784Z,16.50
2024-03-08T05:43:50.455Z,16.90
2024-03-08T05:46:19.237Z,15.43
2024-03-08T05:48:45.922Z,16.33
2024-03-08T05:51:13.485Z,15.77
2024-03-08T05:53:40.146Z,16.70
2024-03-08T05:56:07.113Z,15.17
2024-03-08T05:58:33.761Z,16.33
2024-03-08T06:01:00.374Z,16.30
2024-03-08T06:03:27.372Z,17.00
2024-03-08T06:05:54.374Z,14.90
2024-03-08T06:08:21.020Z,17.30
2024-03-08T06:10:49.907Z,16.67
2024-03-08T06:13:16.593Z,17.17
2024-03-08T06:15:43.351Z,17.43
2024-03-08T06:18:12.802Z,15.97
2024-03-08T06:20:39.555Z,15.17
2024-03-08T06:23:06.234Z,16.17
2024-03-08T06:25:32.830Z,17.10
2024-03-08T06:27:59.441Z,17.00
2024-03-08T06:30:26.122Z,14.70
2024-03-08T06:32:52.874Z,18.30
2024-03-08T06:35:21.442Z,16.60
2024-03-08T06:37:48.195Z,16.30
2024-03-08T06:40:15.495Z,17.40
2024-03-08T06:42:42.772Z,17.20
2024-03-08T06:45:11.254Z,16.37
2024-03-08T06:47:38.299Z,18.30
2024-03-08T06:50:05.656Z,19.03
2024-03-08T06:52:32.311Z,18.57
2024-03-08T06:54:59.246Z,15.33
2024-03-08T06:57:25.999Z,16.60
2024-03-08T06:59:53.579Z,15.47
2024-03-08T07:02:20.382Z,17.50
2024-03-08T07:04:47.082Z,17.37
2024-03-08T07:07:13.691Z,17.30
2024-03-08T07:09:40.309Z,17.53
2024-03-08T07:12:07.683Z,17.30
2024-03-08T07:14:34.372Z,17.47
2024-03-08T07:17:03.252Z,16.60
2024-03-08T07:19:30.698Z,18.40
2024-03-08T07:21:57.287Z,18.40
2024-03-08T07:24:39.129Z,18.50
2024-03-08T07:27:08.925Z,17.80
2024-03-08T07:29:36.303Z,16.83
2024-03-08T07:32:21.077Z,17.93
2024-03-08T07:34:54.213Z,17.10
2024-03-08T07:37:21.727Z,17.30
2024-03-08T07:39:48.440Z,16.27
2024-03-08T07:42:15.032Z,18.63
2024-03-08T07:44:41.784Z,14.83
2024-03-08T07:47:10.620Z,16.20
2024-03-08T07:49:38.605Z,16.57
2024-03-08T07:52:05.809Z,13.93
2024-03-08T07:54:32.489Z,17.00
2024-03-08T07:56:59.189Z,16.57
2024-03-08T07:59:25.836Z,16.40
2024-03-08T08:01:52.533Z,15.07
2024-03-08T08:04:20.260Z,15.37
2024-03-08T08:06:46.978Z,13.90
2024-03-08T08:09:16.241Z,13.70
2024-03-08T08:11:44.452Z,15.87
2024-03-08T08:14:11.260Z,15.77
2024-03-08T08:16:38.659Z,16.27
2024-03-08T08:19:08.738Z,14.60
2024-03-08T08:21:37.951Z,15.53
2024-03-08T08:24:05.182Z,16.40
2024-03-08T08:26:33.166Z,15.43
2024-03-08T08:29:01.432Z,16.53
2024-03-08T08:31:28.252Z,14.27
2024-03-08T08:33:59.338Z,13.07
2024-03-08T08:36:26.097Z,14.07
2024-03-08T08:38:55.400Z,14.10
2024-03-08T08:41:22.924Z,13.80
2024-03-08T08:43:58.851Z,13.50
2024-03-08T08:46:30.653Z,16.00
2024-03-08T08:48:57.340Z,14.33
2024-03-08T08:51:24.377Z,13.73
2024-03-08T08:53:51.062Z,14.83
2024-03-08T08:56:18.607Z,13.20
2024-03-08T08:58:45.191Z,15.27
2024-03-08T09:01:12.638Z,14.87
2024-03-08T09:03:42.051Z,13.60
2024-03-08T09:06:11.691Z,14.00
2024-03-08T09:08:39.180Z,12.83
2024-03-08T09:13:35.517Z,14.37
2024-03-08T09:16:03.889Z,15.90
2024-03-08T09:18:30.524Z,14.10
2024-03-08T09:20:57.167Z,12.67
2024-03-08T09:23:23.856Z,12.73
2024-03-08T09:25:50.504Z,13.30
2024-03-08T09:28:17.537Z,13.90
2024-03-08T09:30:53.859Z,13.40
2024-03-08T09:33:23.925Z,13.47
2024-03-08T09:35:52.469Z,13.60
2024-03-08T09:38:19.161Z,14.30
2024-03-08T09:40:45.956Z,13.23
2024-03-08T09:43:13.026Z,12.90
2024-03-08T09:45:43.148Z,11.13
2024-03-08T09:48:13.228Z,13.87
2024-03-08T09:50:43.202Z,12.97
2024-03-08T09:53:10.514Z,15.93
2024-03-08T09:55:38.375Z,15.87
2024-03-08T09:58:25.836Z,13.23
2024-03-08T10:00:52.586Z,14.43
2024-03-08T10:03:20.828Z,13.97
2024-03-08T10:05:47.560Z,14.03
2024-03-08T10:08:14.669Z,13.50
2024-03-08T10:10:41.322Z,12.70
2024-03-08T10:13:08.270Z,10.63
2024-03-08T10:15:34.916Z,14.13
2024-03-08T10:18:03.254Z,13.27
2024-03-08T10:20:37.012Z,15.27
2024-03-08T10:23:11.474Z,13.57
2024-03-08T10:25:39.070Z,14.47
2024-03-08T10:28:06.254Z,15.43
2024-03-08T10:30:33.587Z,12.77
2024-03-08T10:33:00.370Z,13.27
2024-03-08T10:35:28.188Z,10.07
2024-03-08T10:38:00.696Z,12.80
2024-03-08T10:40:27.642Z,13.57
2024-03-08T10:42:58.049Z,14.10
2024-03-08T10:45:29.128Z,14.00
2024-03-08T10:48:20.338Z,14.50
2024-03-08T10:50:47.973Z,10.83
2024-03-08T10:53:14.931Z,12.43
2024-03-08T10:55:42.081Z,13.40
2024-03-08T10:58:08.992Z,14.60
2024-03-08T11:00:36.703Z,14.80
2024-03-08T11:03:04.453Z,15.10
2024-03-08T11:05:40.371Z,14.43
2024-03-08T11:08:20.585Z,13.20
2024-03-08T11:10:57.552Z,9.93
2024-03-08T11:13:36.905Z,12.50
2024-03-08T11:16:13.731Z,12.70
2024-03-08T11:18:40.957Z,13.00
2024-03-08T11:21:13.970Z,11.53
2024-03-08T11:23:41.226Z,11.60
2024-03-08T11:26:21.516Z,12.23
2024-03-08T11:28:48.588Z,14.00
2024-03-08T11:31:34.351Z,11.40
2024-03-08T11:34:00.949Z,14.13
2024-03-08T11:36:27.678Z,13.50
2024-03-08T11:38:55.299Z,11.73
2024-03-08T11:41:24.126Z,12.20
2024-03-08T11:43:51.658Z,12.70
2024-03-08T11:46:19.017Z,13.60
2024-03-08T11:48:47.918Z,13.07
2024-03-08T11:53:43.359Z,12.83
2024-03-08T11:56:12.697Z,12.43
2024-03-08T11:58:39.724Z,10.70
2024-03-08T12:01:18.269Z,12.20
2024-03-08T12:03:44.948Z,11.90
2024-03-08T12:06:11.960Z,11.30
2024-03-08T12:08:38.596Z,13.00
2024-03-08T12:11:05.627Z,13.83
2024-03-08T12:13:35.738Z,12.77
2024-03-08T12:16:05.627Z,12.87
2024-03-08T12:18:36.642Z,11.97
2024-03-08T12:21:08.754Z,11.33
2024-03-08T12:23:40.425Z,11.67
2024-03-08T12:26:17.802Z,12.23
2024-03-08T12:28:49.487Z,11.60
2024-03-08T12:31:18.421Z,13.40
2024-03-08T12:33:56.394Z,8.30
2024-03-08T12:36:24.184Z,11.27
2024-03-08T12:38:50.750Z,10.80
2024-03-08T12:41:20.454Z,12.90
2024-03-08T12:43:50.830Z,12.10
2024-03-08T12:46:27.316Z,14.90
2024-03-08T12:48:54.651Z,11.30
2024-03-08T12:51:22.026Z,14.43
2024-03-08T12:53:48.603Z,11.90
2024-03-08T12:56:21.873Z,12.40
2024-03-08T12:58:48.463Z,12.93
2024-03-08T13:01:16.302Z,11.43
2024-03-08T13:03:44.935Z,13.10
2024-03-08T13:06:11.556Z,11.30
2024-03-08T13:08:41.524Z,12.90
2024-03-08T13:11:15.313Z,12.57
2024-03-08T13:13:42.119Z,10.43
2024-03-08T13:16:09.823Z,11.07
2024-03-08T13:18:37.053Z,11.27
2024-03-08T13:21:07.377Z,9.90
2024-03-08T13:23:41.322Z,10.87
2024-03-08T13:26:17.629Z,10.63
2024-03-08T13:28:47.345Z,10.53
2024-03-08T13:31:15.972Z,10.10
2024-03-08T13:33:46.761Z,8.67
2024-03-08T13:36:17.131Z,9.23
2024-03-08T13:38:44.713Z,9.90
2024-03-08T13:41:13.101Z,9.63
2024-03-08T13:43:41.161Z,9.63
2024-03-08T13:46:08.265Z,9.77
2024-03-08T13:48:35.086Z,10.20
2024-03-08T13:51:01.792Z,11.13
2024-03-08T13:53:28.506Z,8.27
2024-03-08T13:55:55.754Z,9.20
2024-03-08T13:58:22.483Z,10.63
2024-03-08T14:00:49.161Z,11.27
2024-03-08T14:03:15.850Z,10.80
2024-03-08T14:05:43.832Z,9.30
2024-03-08T14:08:10.623Z,8.83
2024-03-08T14:10:40.161Z,10.60
2024-03-08T14:13:08.162Z,9.70
2024-03-08T14:15:39.633Z,9.83
2024-03-08T14:18:08.278Z,10.77
2024-03-08T14:20:35.041Z,11.07
2024-03-08T14:23:01.695Z,11.70
2024-03-08T14:25:31.242Z,10.10
2024-03-08T14:28:04.780Z,10.10
2024-03-08T14:30:35.959Z,10.97
2024-03-08T14:33:03.766Z,12.27
2024-03-08T14:35:30.626Z,11.00
2024-03-08T14:38:01.667Z,11.00
2024-03-08T14:40:28.562Z,10.80
2024-03-08T14:42:55.201Z,10.40
2024-03-08T14:45:21.984Z,10.43
2024-03-08T14:47:51.559Z,10.80
2024-03-08T14:50:22.112Z,10.70
2024-03-08T14:52:51.983Z,11.97
2024-03-08T14:55:20.962Z,12.00
2024-03-08T14:57:47.644Z,13.07
2024-03-08T15:00:18.135Z,9.43
2024-03-08T15:02:45.479Z,11.87
2024-03-08T15:05:14.984Z,9.77
2024-03-08T15:07:41.990Z,12.80
2024-03-08T15:10:12.143Z,11.30
2024-03-08T15:12:40.597Z,10.13
2024-03-08T15:15:11.087Z,10.73
2024-03-08T15:17:40.875Z,11.77
2024-03-08T15:20:16.184Z,9.50
2024-03-08T15:22:45.279Z,11.97
2024-03-08T15:25:21.523Z,12.80
2024-03-08T15:27:49.791Z,10.50
2024-03-08T15:30:17.890Z,11.10
2024-03-08T15:32:48.734Z,11.47
2024-03-08T15:35:17.740Z,12.37
2024-03-08T15:37:46.173Z,10.60
2024-03-08T15:40:24.979Z,8.93
2024-03-08T15:43:00.650Z,10.80
2024-03-08T15:45:37.926Z,12.20
2024-03-08T15:48:06.550Z,10.77
2024-03-08T15:50:36.292Z,10.20
2024-03-08T15:53:03.268Z,11.10
2024-03-08T15:55:30.778Z,10.37
2024-03-08T15:57:57.643Z,9.97
2024-03-08T16:00:42.964Z,8.87
2024-03-08T16:03:12.288Z,10.40
2024-03-08T16:05:45.530Z,12.40
2024-03-08T16:08:22.481Z,10.90
2024-03-08T16:10:51.131Z,10.43
2024-03-08T16:13:18.884Z,10.70
2024-03-08T16:15:47.616Z,9.60
2024-03-08T16:18:17.138Z,10.93
2024-03-08T16:20:44.709Z,10.87
2024-03-08T16:23:15.527Z,10.43
2024-03-08T16:25:45.297Z,10.57
2024-03-08T16:28:12.315Z,12.07
2024-03-08T16:30:40.871Z,12.23
2024-03-08T16:33:07.979Z,10.40
2024-03-08T16:35:37.057Z,12.23
2024-03-08T16:38:03.981Z,11.00
2024-03-08T16:40:30.817Z,11.50
2024-03-08T16:42:57.478Z,9.90
2024-03-08T16:45:24.390Z,11.90
2024-03-08T16:47:57.994Z,11.50
2024-03-08T16:50:24.719Z,11.47
2024-03-08T16:52:56.826Z,11.40
2024-03-08T16:55:25.750Z,12.40
2024-03-08T16:57:52.353Z,10.50
2024-03-08T17:00:23.219Z,12.53
2024-03-08T17:02:50.991Z,13.63
2024-03-08T17:05:17.796Z,12.17
2024-03-08T17:07:52.874Z,12.47
2024-03-08T17:10:20.681Z,12.40
2024-03-08T17:12:50.933Z,13.07
2024-03-08T17:15:22.926Z,11.60
2024-03-08T17:17:54.479Z,13.60
2024-03-08T17:20:21.834Z,11.60
2024-03-08T17:22:49.406Z,12.07
2024-03-08T17:25:16.476Z,12.73
2024-03-08T17:27:45.531Z,12.73
2024-03-08T17:30:20.961Z,12.43
2024-03-08T17:32:49.595Z,12.40
2024-03-08T17:35:19.814Z,10.90
2024-03-08T17:37:48.200Z,12.47
2024-03-08T17:40:19.131Z,12.03
2024-03-08T17:42:46.546Z,13.50
2024-03-08T17:45:14.578Z,11.47
2024-03-08T17:47:41.905Z,12.43
2024-03-08T17:50:11.298Z,12.03
2024-03-08T17:52:39.392Z,12.20
2024-03-08T17:55:10.354Z,12.80
2024-03-08T17:57:40.921Z,13.97
2024-03-08T18:00:13.752Z,12.43
2024-03-08T18:02:40.479Z,12.67
2024-03-08T18:05:08.567Z,12.03
2024-03-08T18:07:35.183Z,12.07
2024-03-08T18:10:02.540Z,11.83
2024-03-08T18:12:31.105Z,11.50
2024-03-08T18:14:59.271Z,10.70
2024-03-08T18:17:25.913Z,11.97
2024-03-08T18:19:52.896Z,10.53
2024-03-08T18:22:19.609Z,13.10
2024-03-08T18:24:47.278Z,11.40
2024-03-08T18:27:14.406Z,14.10
2024-03-08T18:29:41.141Z,11.77
2024-03-08T18:32:08.864Z,12.20
2024-03-08T18:34:37.420Z,13.50
2024-03-08T18:37:06.127Z,10.70
2024-03-08T18:39:32.748Z,11.27
2024-03-08T18:41:59.338Z,10.60
2024-03-08T18:44:25.900Z,11.17
2024-03-08T18:46:57.739Z,13.20
2024-03-08T18:49:24.426Z,11.97
2024-03-08T18:51:55.476Z,13.37
2024-03-08T18:54:22.189Z,11.40
2024-03-08T18:56:52.707Z,10.73
2024-03-08T18:59:19.380Z,13.07
2024-03-08T19:01:49.062Z,12.17
2024-03-08T19:04:16.004Z,11.87
2024-03-08T19:06:42.613Z,13.10
2024-03-08T19:09:11.524Z,13.57
2024-03-08T19:11:38.223Z,12.27
2024-03-08T19:14:04.891Z,11.67
2024-03-08T19:16:31.571Z,12.43
2024-03-08T19:18:58.181Z,11.23
2024-03-08T19:21:25.502Z,12.13
2024-03-08T19:23:52.406Z,12.97
2024-03-08T19:26:23.246Z,13.57
2024-03-08T19:28:50.009Z,11.73
2024-03-08T19:31:16.639Z,12.67
2024-03-08T19:33:43.210Z,12.13
2024-03-08T19:36:13.489Z,12.20
2024-03-08T19:38:41.610Z,12.37
2024-03-08T19:41:08.300Z,11.53
2024-03-08T19:43:34.962Z,11.07
2024-03-08T19:46:01.900Z,12.90
2024-03-08T19:48:28.978Z,11.87
2024-03-08T19:50:56.668Z,13.60
2024-03-08T19:53:23.793Z,11.30
2024-03-08T19:55:52.178Z,13.40
2024-03-08T19:58:19.998Z,12.10
2024-03-08T20:00:48.609Z,11.83
2024-03-08T20:03:22.079Z,12.60
2024-03-08T20:05:49.410Z,11.70
2024-03-08T20:08:16.281Z,11.83
2024-03-08T20:10:43.602Z,12.67
2024-03-08T20:13:10.720Z,12.93
2024-03-08T20:15:48.898Z,11.90
2024-03-08T20:18:16.200Z,12.23
2024-03-08T20:20:49.601Z,11.77
2024-03-08T20:23:17.629Z,10.40
2024-03-08T20:25:46.774Z,12.50
2024-03-08T20:28:13.896Z,12.90
2024-03-08T20:30:43.189Z,11.80
2024-03-08T20:33:10.108Z,12.77
2024-03-08T20:35:36.757Z,10.00
2024-03-08T20:38:21.230Z,12.07
2024-03-08T20:40:48.270Z,11.40
2024-03-08T20:43:19.465Z,12.47
2024-03-08T20:45:47.753Z,11.20
2024-03-08T20:48:15.300Z,10.97
2024-03-08T20:50:43.292Z,11.77
2024-03-08T20:53:12.209Z,11.80
2024-03-08T20:55:45.859Z,10.93
2024-03-08T20:58:12.876Z,10.67
2024-03-08T21:00:39.536Z,10.83
2024-03-08T21:03:08.643Z,11.67
2024-03-08T21:05:36.907Z,11.63
2024-03-08T21:08:06.937Z,12.20
2024-03-08T21:10:36.168Z,10.70
2024-03-08T21:13:03.486Z,11.90
2024-03-08T21:15:30.127Z,11.60
2024-03-08T21:17:56.937Z,11.40
2024-03-08T21:20:24.900Z,10.23
2024-03-08T21:22:51.945Z,11.63
2024-03-08T21:25:21.879Z,12.47
2024-03-08T21:27:48.602Z,12.20
2024-03-08T21:30:26.259Z,13.10
2024-03-08T21:32:53.673Z,11.77
2024-03-08T21:35:21.034Z,12.37
2024-03-08T21:37:48.861Z,13.30
2024-03-08T21:40:22.910Z,12.87
2024-03-08T21:42:50.669Z,12.10
2024-03-08T21:45:17.602Z,12.40
2024-03-08T21:47:44.377Z,12.67
2024-03-08T21:50:15.248Z,11.90
2024-03-08T21:52:45.430Z,13.10
2024-03-08T21:55:12.972Z,12.27
2024-03-08T21:57:39.597Z,13.03
2024-03-08T22:00:12.570Z,12.83
2024-03-08T22:02:43.480Z,12.63
2024-03-08T22:05:11.573Z,12.90
2024-03-08T22:07:38.289Z,13.50
2024-03-08T22:10:05.296Z,12.73
2024-03-08T22:12:32.502Z,13.03
2024-03-08T22:14:59.206Z,13.60
2024-03-08T22:17:26.281Z,10.73
2024-03-08T22:19:53.503Z,14.30
2024-03-08T22:22:20.832Z,11.40
2024-03-08T22:24:54.362Z,12.80
2024-03-08T22:27:22.203Z,13.07
2024-03-08T22:29:49.180Z,11.90
2024-03-08T22:32:16.363Z,12.73
2024-03-08T22:34:43.034Z,12.37
2024-03-08T22:37:15.104Z,10.83
2024-03-08T22:39:41.906Z,12.17
2024-03-08T22:42:08.531Z,12.23
2024-03-08T22:44:35.666Z,11.17
2024-03-08T22:47:04.712Z,11.70
2024-03-08T22:49:32.640Z,12.27
2024-03-08T22:52:00.799Z,12.47
2024-03-08T22:54:27.465Z,11.33
2024-03-08T22:56:54.124Z,13.10
2024-03-08T22:59:24.348Z,13.70
2024-03-08T23:01:53.620Z,11.87
2024-03-08T23:04:20.496Z,11.03
2024-03-08T23:06:47.080Z,12.00
2024-03-08T23:09:16.436Z,11.10
2024-03-08T23:11:44.354Z,10.67
2024-03-08T23:14:12.290Z,10.60
2024-03-08T23:16:39.474Z,11.83
2024-03-08T23:19:06.369Z,11.70
2024-03-08T23:21:32.994Z,11.53
2024-03-08T23:23:59.574Z,11.33
2024-03-08T23:26:28.971Z,10.07
2024-03-08T23:28:55.630Z,10.83
2024-03-08T23:31:22.832Z,10.70
2024-03-08T23:33:50.913Z,11.47
2024-03-08T23:36:17.778Z,11.07
2024-03-08T23:38:45.875Z,12.10
2024-03-08T23:41:12.661Z,11.43
2024-03-08T23:43:41.514Z,12.10
2024-03-08T23:46:08.194Z,12.87
2024-03-08T23:48:34.809Z,10.07
2024-03-08T23:51:01.412Z,11.13
2024-03-08T23:53:27.995Z,11.40
2024-03-08T23:55:56.212Z,12.60
2024-03-08T23:58:22.925Z,11.37
